createdAt,value
2016-06-01T00:00:37.288Z,958.49
2016-06-01T00:01:37.306Z,958.5
2016-06-01T00:02:37.309Z,958.51
2016-06-01T00:03:37.328Z,958.49
2016-06-01T00:04:37.330Z,958.49
2016-06-01T00:05:37.349Z,958.55
2016-06-01T00:06:37.366Z,958.56
2016-06-01T00:07:37.369Z,958.58
2016-06-01T00:08:37.372Z,958.6
2016-06-01T00:09:37.390Z,958.6
2016-06-01T00:10:37.415Z,958.59
2016-06-01T00:11:37.444Z,958.57
2016-06-01T00:12:37.488Z,958.58
2016-06-01T00:13:37.518Z,958.6
2016-06-01T00:14:37.546Z,958.6
2016-06-01T00:15:37.577Z,958.65
2016-06-01T00:16:37.588Z,958.61
2016-06-01T00:17:37.617Z,958.62
2016-06-01T00:18:37.644Z,958.61
2016-06-01T00:19:37.656Z,958.62
2016-06-01T00:20:37.664Z,958.6
2016-06-01T00:21:37.686Z,958.6
2016-06-01T00:22:37.708Z,958.55
2016-06-01T00:23:37.714Z,958.59
2016-06-01T00:24:37.721Z,958.62
2016-06-01T00:25:37.739Z,958.59
2016-06-01T00:26:37.743Z,958.62
2016-06-01T00:27:37.763Z,958.64
2016-06-01T00:28:37.767Z,958.66
2016-06-01T00:29:37.787Z,958.64
2016-06-01T00:30:37.790Z,958.64
2016-06-01T00:31:37.808Z,958.63
2016-06-01T00:32:37.811Z,958.63
2016-06-01T00:33:37.830Z,958.63
2016-06-01T00:34:37.833Z,958.64
2016-06-01T00:35:37.851Z,958.59
2016-06-01T00:36:37.870Z,958.6
2016-06-01T00:37:37.873Z,958.6
2016-06-01T00:38:37.875Z,958.6
2016-06-01T00:39:37.894Z,958.55
2016-06-01T00:40:37.897Z,958.56
2016-06-01T00:41:37.915Z,958.57
2016-06-01T00:42:37.917Z,958.57
2016-06-01T00:43:37.920Z,958.55
2016-06-01T00:44:37.938Z,958.54
2016-06-01T00:45:37.941Z,958.5
2016-06-01T00:46:37.960Z,958.52
2016-06-01T00:47:37.977Z,958.48
2016-06-01T00:48:37.980Z,958.47
2016-06-01T00:49:37.983Z,958.52
2016-06-01T00:50:38.002Z,958.5
2016-06-01T00:51:38.004Z,958.49
2016-06-01T00:52:38.007Z,958.51
2016-06-01T00:53:38.025Z,958.55
2016-06-01T00:54:38.027Z,958.52
2016-06-01T00:55:38.046Z,958.55
2016-06-01T00:56:38.049Z,958.51
2016-06-01T00:57:38.067Z,958.55
2016-06-01T00:58:38.070Z,958.56
2016-06-01T00:59:38.088Z,958.56
2016-06-01T01:00:38.090Z,958.54
2016-06-01T01:01:38.109Z,958.55
2016-06-01T01:02:38.112Z,958.54
2016-06-01T01:03:38.131Z,958.56
2016-06-01T01:04:38.148Z,958.54
2016-06-01T01:05:38.151Z,958.55
2016-06-01T01:06:38.153Z,958.53
2016-06-01T01:07:38.172Z,958.52
2016-06-01T01:08:38.175Z,958.54
2016-06-01T01:09:38.178Z,958.56
2016-06-01T01:10:38.195Z,958.55
2016-06-01T01:11:38.198Z,958.52
2016-06-01T01:12:38.217Z,958.54
2016-06-01T01:13:38.235Z,958.55
2016-06-01T01:14:38.238Z,958.55
2016-06-01T01:15:38.241Z,958.6
2016-06-01T01:16:38.259Z,958.56
2016-06-01T01:17:38.261Z,958.53
2016-06-01T01:18:38.280Z,958.53
2016-06-01T01:19:38.282Z,958.5
2016-06-01T01:20:38.285Z,958.51
2016-06-01T01:21:38.304Z,958.5
2016-06-01T01:22:38.322Z,958.48
2016-06-01T01:23:38.574Z,958.51
2016-06-01T01:24:38.608Z,958.51
2016-06-01T01:25:38.346Z,958.45
2016-06-01T01:26:38.363Z,958.46
2016-06-01T01:27:38.366Z,958.45
2016-06-01T01:28:38.385Z,958.44
2016-06-01T01:29:38.388Z,958.43
2016-06-01T01:30:38.390Z,958.42
2016-06-01T01:31:38.408Z,958.42
2016-06-01T01:32:38.411Z,958.39
2016-06-01T01:33:38.414Z,958.37
2016-06-01T01:34:38.432Z,958.4
2016-06-01T01:35:38.434Z,958.38
2016-06-01T01:36:38.453Z,958.36
2016-06-01T01:37:38.456Z,958.33
2016-06-01T01:38:38.475Z,958.3
2016-06-01T01:39:38.492Z,958.33
2016-06-01T01:40:38.495Z,958.3
2016-06-01T01:41:38.497Z,958.3
2016-06-01T01:42:38.500Z,958.26
2016-06-01T01:43:38.534Z,958.32
2016-06-01T01:44:38.537Z,958.32
2016-06-01T01:45:38.539Z,958.28
2016-06-01T01:46:38.558Z,958.27
2016-06-01T01:47:38.561Z,958.26
2016-06-01T01:48:38.564Z,958.25
2016-06-01T01:49:38.582Z,958.25
2016-06-01T01:50:38.600Z,958.23
2016-06-01T01:51:38.603Z,958.24
2016-06-01T01:52:38.621Z,958.26
2016-06-01T01:53:38.843Z,958.23
2016-06-01T01:54:38.626Z,958.23
2016-06-01T01:55:38.645Z,958.23
2016-06-01T01:56:38.648Z,958.23
2016-06-01T01:57:38.666Z,958.19
2016-06-01T01:58:38.668Z,958.22
2016-06-01T01:59:38.687Z,958.22
2016-06-01T02:00:38.690Z,958.23
2016-06-01T02:01:38.707Z,958.2
2016-06-01T02:02:38.710Z,958.2
2016-06-01T02:03:38.728Z,958.2
2016-06-01T02:04:38.732Z,958.17
2016-06-01T02:05:38.734Z,958.22
2016-06-01T02:06:38.753Z,958.15
2016-06-01T02:07:38.756Z,958.14
2016-06-01T02:08:38.773Z,958.12
2016-06-01T02:09:39.463Z,958.13
2016-06-01T02:10:38.795Z,958.12
2016-06-01T02:11:38.797Z,958.1
2016-06-01T02:12:38.816Z,958.1
2016-06-01T02:13:38.819Z,958.14
2016-06-01T02:14:38.836Z,958.14
2016-06-01T02:15:38.839Z,958.13
2016-06-01T02:16:38.858Z,958.11
2016-06-01T02:17:38.861Z,958.12
2016-06-01T02:18:38.863Z,958.14
2016-06-01T02:19:38.881Z,958.12
2016-06-01T02:20:38.883Z,958.09
2016-06-01T02:21:38.902Z,958.11
2016-06-01T02:22:38.905Z,958.15
2016-06-01T02:23:38.923Z,958.07
2016-06-01T02:24:39.567Z,958.08
2016-06-01T02:25:38.944Z,958.11
2016-06-01T02:26:38.946Z,958.12
2016-06-01T02:27:38.949Z,958.08
2016-06-01T02:28:38.968Z,958.1
2016-06-01T02:29:38.970Z,958.13
2016-06-01T02:30:38.990Z,958.08
2016-06-01T02:31:38.993Z,958.08
2016-06-01T02:32:39.009Z,958.08
2016-06-01T02:33:39.029Z,958.02
2016-06-01T02:34:39.031Z,958.07
2016-06-01T02:35:39.034Z,958.02
2016-06-01T02:36:39.052Z,958.04
2016-06-01T02:37:39.054Z,958.01
2016-06-01T02:38:39.072Z,958.01
2016-06-01T02:39:39.075Z,957.99
2016-06-01T02:40:39.094Z,957.97
2016-06-01T02:41:39.097Z,957.99
2016-06-01T02:42:39.100Z,958.01
2016-06-01T02:43:39.118Z,957.98
2016-06-01T02:44:39.120Z,958.01
2016-06-01T02:45:39.138Z,958
2016-06-01T02:46:39.141Z,958.01
2016-06-01T02:47:39.160Z,958.01
2016-06-01T02:48:39.163Z,958.01
2016-06-01T02:49:39.181Z,958.03
2016-06-01T02:50:39.199Z,958.01
2016-06-01T02:51:39.185Z,958.01
2016-06-01T02:52:39.204Z,958.03
2016-06-01T02:53:39.208Z,957.98
2016-06-01T02:54:39.225Z,957.96
2016-06-01T02:55:39.228Z,957.96
2016-06-01T02:56:39.294Z,957.93
2016-06-01T02:57:39.249Z,957.94
2016-06-01T02:58:39.267Z,957.93
2016-06-01T02:59:39.271Z,957.97
2016-06-01T03:00:39.288Z,957.97
2016-06-01T03:01:39.307Z,957.94
2016-06-01T03:02:39.310Z,957.92
2016-06-01T03:03:39.328Z,957.95
2016-06-01T03:04:39.330Z,957.95
2016-06-01T03:05:39.334Z,957.96
2016-06-01T03:06:39.351Z,957.96
2016-06-01T03:07:39.354Z,958.02
2016-06-01T03:08:39.357Z,957.96
2016-06-01T03:09:39.375Z,958
2016-06-01T03:10:39.378Z,957.96
2016-06-01T03:11:39.395Z,958
2016-06-01T03:12:39.399Z,957.98
2016-06-01T03:13:39.417Z,958.03
2016-06-01T03:14:39.420Z,958.04
2016-06-01T03:15:39.438Z,958.06
2016-06-01T03:16:39.441Z,958.08
2016-06-01T03:17:39.459Z,958.08
2016-06-01T03:18:39.462Z,958.09
2016-06-01T03:19:39.480Z,958.1
2016-06-01T03:20:39.483Z,958.1
2016-06-01T03:21:39.502Z,958.1
2016-06-01T03:22:39.504Z,958.13
2016-06-01T03:23:39.522Z,958.14
2016-06-01T03:24:39.525Z,958.18
2016-06-01T03:25:39.544Z,958.18
2016-06-01T03:26:39.546Z,958.23
2016-06-01T03:27:39.564Z,958.2
2016-06-01T03:28:39.567Z,958.21
2016-06-01T03:29:39.585Z,958.18
2016-06-01T03:30:39.588Z,958.18
2016-06-01T03:31:39.591Z,958.22
2016-06-01T03:32:39.594Z,958.24
2016-06-01T03:33:39.627Z,958.22
2016-06-01T03:34:39.614Z,958.21
2016-06-01T03:35:39.632Z,958.25
2016-06-01T03:36:39.635Z,958.22
2016-06-01T03:37:39.654Z,958.24
2016-06-01T03:38:40.298Z,958.27
2016-06-01T03:39:39.675Z,958.26
2016-06-01T03:40:39.677Z,958.24
2016-06-01T03:41:39.695Z,958.29
2016-06-01T03:42:39.698Z,958.28
2016-06-01T03:43:39.717Z,958.29
2016-06-01T03:44:39.720Z,958.27
2016-06-01T03:45:39.738Z,958.28
2016-06-01T03:46:39.739Z,958.33
2016-06-01T03:47:39.758Z,958.31
2016-06-01T03:48:39.761Z,958.32
2016-06-01T03:49:39.764Z,958.34
2016-06-01T03:50:39.782Z,958.34
2016-06-01T03:51:39.786Z,958.34
2016-06-01T03:52:39.802Z,958.33
2016-06-01T03:53:39.806Z,958.39
2016-06-01T03:54:39.841Z,958.36
2016-06-01T03:55:39.827Z,958.4
2016-06-01T03:56:39.846Z,958.39
2016-06-01T03:57:39.849Z,958.41
2016-06-01T03:58:39.866Z,958.4
2016-06-01T03:59:39.869Z,958.37
2016-06-01T04:00:39.887Z,958.38
2016-06-01T04:01:39.890Z,958.39
2016-06-01T04:02:39.893Z,958.36
2016-06-01T04:03:39.911Z,958.39
2016-06-01T04:04:39.914Z,958.38
2016-06-01T04:05:39.931Z,958.4
2016-06-01T04:06:39.935Z,958.42
2016-06-01T04:07:39.954Z,958.41
2016-06-01T04:08:39.956Z,958.4
2016-06-01T04:09:39.974Z,958.41
2016-06-01T04:10:39.977Z,958.41
2016-06-01T04:11:39.995Z,958.42
2016-06-01T04:12:39.998Z,958.4
2016-06-01T04:13:40.001Z,958.39
2016-06-01T04:14:40.019Z,958.43
2016-06-01T04:15:40.022Z,958.38
2016-06-01T04:16:40.040Z,958.4
2016-06-01T04:17:40.042Z,958.41
2016-06-01T04:18:40.061Z,958.4
2016-06-01T04:19:40.063Z,958.38
2016-06-01T04:20:40.082Z,958.39
2016-06-01T04:21:40.084Z,958.39
2016-06-01T04:22:40.087Z,958.4
2016-06-01T04:23:40.105Z,958.41
2016-06-01T04:24:40.764Z,958.36
2016-06-01T04:25:40.126Z,958.4
2016-06-01T04:26:40.130Z,958.39
2016-06-01T04:27:40.147Z,958.43
2016-06-01T04:28:40.150Z,958.39
2016-06-01T04:29:40.168Z,958.42
2016-06-01T04:30:40.172Z,958.37
2016-06-01T04:31:40.189Z,958.4
2016-06-01T04:32:40.193Z,958.44
2016-06-01T04:33:40.210Z,958.41
2016-06-01T04:34:40.213Z,958.41
2016-06-01T04:35:40.216Z,958.39
2016-06-01T04:36:40.234Z,958.39
2016-06-01T04:37:40.237Z,958.43
2016-06-01T04:38:40.255Z,958.45
2016-06-01T04:39:40.790Z,958.44
2016-06-01T04:40:40.276Z,958.4
2016-06-01T04:41:40.279Z,958.48
2016-06-01T04:42:40.297Z,958.44
2016-06-01T04:43:40.300Z,958.5
2016-06-01T04:44:40.318Z,958.49
2016-06-01T04:45:40.320Z,958.44
2016-06-01T04:46:40.339Z,958.46
2016-06-01T04:47:40.342Z,958.46
2016-06-01T04:48:40.360Z,958.48
2016-06-01T04:49:40.364Z,958.49
2016-06-01T04:50:40.366Z,958.53
2016-06-01T04:51:40.383Z,958.51
2016-06-01T04:52:40.387Z,958.5
2016-06-01T04:53:40.405Z,958.51
2016-06-01T04:54:40.985Z,958.56
2016-06-01T04:55:40.411Z,958.51
2016-06-01T04:56:40.428Z,958.6
2016-06-01T04:57:40.431Z,958.61
2016-06-01T04:58:40.449Z,958.53
2016-06-01T04:59:40.469Z,958.59
2016-06-01T05:00:40.471Z,958.58
2016-06-01T05:01:40.489Z,958.59
2016-06-01T05:02:40.491Z,958.55
2016-06-01T05:03:40.494Z,958.59
2016-06-01T05:04:40.513Z,958.62
2016-06-01T05:06:40.534Z,958.59
2016-06-01T05:07:40.537Z,958.6
2016-06-01T05:08:40.961Z,958.61
2016-06-01T05:09:40.558Z,958.59
2016-06-01T05:10:40.576Z,958.63
2016-06-01T05:11:40.578Z,958.69
2016-06-01T05:12:40.596Z,958.68
2016-06-01T05:13:40.599Z,958.68
2016-06-01T05:14:40.617Z,958.65
2016-06-01T05:15:40.620Z,958.65
2016-06-01T05:16:40.623Z,958.64
2016-06-01T05:17:40.642Z,958.68
2016-06-01T05:18:40.644Z,958.68
2016-06-01T05:19:40.662Z,958.66
2016-06-01T05:20:40.665Z,958.67
2016-06-01T05:21:40.684Z,958.7
2016-06-01T05:22:40.686Z,958.71
2016-06-01T05:23:41.469Z,958.72
2016-06-01T05:24:40.739Z,958.67
2016-06-01T05:25:40.725Z,958.75
2016-06-01T05:26:40.728Z,958.77
2016-06-01T05:27:40.747Z,958.68
2016-06-01T05:28:40.749Z,958.73
2016-06-01T05:29:40.752Z,958.75
2016-06-01T05:30:40.770Z,958.72
2016-06-01T05:31:40.772Z,958.74
2016-06-01T05:32:40.791Z,958.77
2016-06-01T05:33:40.794Z,958.75
2016-06-01T05:34:40.812Z,958.76
2016-06-01T05:35:40.815Z,958.75
2016-06-01T05:36:40.818Z,958.74
2016-06-01T05:37:40.836Z,958.73
2016-06-01T05:38:40.838Z,958.74
2016-06-01T05:39:40.857Z,958.75
2016-06-01T05:40:40.859Z,958.78
2016-06-01T05:41:40.878Z,958.75
2016-06-01T05:42:40.881Z,958.78
2016-06-01T05:43:40.898Z,958.8
2016-06-01T05:44:40.901Z,958.79
2016-06-01T05:45:40.920Z,958.79
2016-06-01T05:46:40.938Z,958.78
2016-06-01T05:47:40.940Z,958.81
2016-06-01T05:48:40.943Z,958.79
2016-06-01T05:49:40.962Z,958.83
2016-06-01T05:50:40.981Z,958.86
2016-06-01T05:51:40.967Z,958.82
2016-06-01T05:52:40.986Z,958.82
2016-06-01T05:53:41.003Z,958.84
2016-06-01T05:54:41.288Z,958.84
2016-06-01T05:55:41.025Z,958.8
2016-06-01T05:56:41.028Z,958.78
2016-06-01T05:57:41.046Z,958.79
2016-06-01T05:58:41.049Z,958.8
2016-06-01T05:59:41.052Z,958.81
2016-06-01T06:00:41.070Z,958.8
2016-06-01T06:01:41.072Z,958.82
2016-06-01T06:02:41.091Z,958.83
2016-06-01T06:03:41.094Z,958.83
2016-06-01T06:04:41.096Z,958.88
2016-06-01T06:05:41.113Z,958.87
2016-06-01T06:06:41.132Z,958.91
2016-06-01T06:07:41.135Z,958.87
2016-06-01T06:08:41.154Z,958.9
2016-06-01T06:09:41.156Z,958.89
2016-06-01T06:10:41.159Z,958.9
2016-06-01T06:11:41.177Z,958.88
2016-06-01T06:12:41.180Z,958.89
2016-06-01T06:13:41.199Z,958.87
2016-06-01T06:14:41.201Z,958.89
2016-06-01T06:15:41.219Z,958.92
2016-06-01T06:16:41.222Z,958.9
2016-06-01T06:17:41.240Z,958.9
2016-06-01T06:18:41.242Z,958.88
2016-06-01T06:19:41.261Z,958.9
2016-06-01T06:20:41.264Z,958.9
2016-06-01T06:21:41.281Z,958.92
2016-06-01T06:22:41.284Z,958.93
2016-06-01T06:23:41.288Z,958.94
2016-06-01T06:24:41.369Z,958.92
2016-06-01T06:25:41.309Z,958.94
2016-06-01T06:26:41.327Z,958.93
2016-06-01T06:27:41.330Z,958.95
2016-06-01T06:28:41.347Z,958.95
2016-06-01T06:29:41.351Z,958.99
2016-06-01T06:30:41.353Z,958.97
2016-06-01T06:31:41.371Z,959.01
2016-06-01T06:32:41.390Z,958.98
2016-06-01T06:33:41.393Z,958.99
2016-06-01T06:34:41.411Z,958.95
2016-06-01T06:35:41.414Z,958.97
2016-06-01T06:36:41.432Z,958.99
2016-06-01T06:37:41.435Z,959
2016-06-01T06:38:41.452Z,958.96
2016-06-01T06:39:41.471Z,958.99
2016-06-01T06:40:41.474Z,958.97
2016-06-01T06:41:41.461Z,958.96
2016-06-01T06:42:41.480Z,958.94
2016-06-01T06:43:41.498Z,958.91
2016-06-01T06:44:41.501Z,958.93
2016-06-01T06:45:41.518Z,958.94
2016-06-01T06:46:41.521Z,958.97
2016-06-01T06:47:41.524Z,958.94
2016-06-01T06:49:41.545Z,958.99
2016-06-01T06:50:41.564Z,959
2016-06-01T06:51:41.567Z,959.02
2016-06-01T06:52:41.600Z,959.03
2016-06-01T06:53:41.586Z,959.03
2016-06-01T06:54:41.636Z,959.02
2016-06-01T06:55:41.608Z,959.01
2016-06-01T06:56:41.626Z,958.99
2016-06-01T06:57:41.629Z,959.04
2016-06-01T06:58:41.648Z,959.03
2016-06-01T06:59:41.650Z,959.02
2016-06-01T07:00:41.668Z,959.01
2016-06-01T07:01:41.671Z,958.99
2016-06-01T07:02:41.689Z,958.99
2016-06-01T07:03:41.692Z,959.04
2016-06-01T07:04:41.711Z,959.09
2016-06-01T07:05:41.714Z,959.08
2016-06-01T07:06:41.716Z,959.09
2016-06-01T07:07:41.734Z,959.07
2016-06-01T07:08:41.738Z,959.03
2016-06-01T07:09:41.755Z,959.03
2016-06-01T07:10:41.758Z,959.01
2016-06-01T07:11:41.776Z,959.02
2016-06-01T07:12:41.779Z,958.99
2016-06-01T07:13:41.797Z,958.97
2016-06-01T07:14:41.799Z,959
2016-06-01T07:15:41.818Z,958.97
2016-06-01T07:16:41.820Z,959
2016-06-01T07:17:41.840Z,959
2016-06-01T07:18:41.842Z,959.07
2016-06-01T07:19:41.845Z,959.03
2016-06-01T07:20:41.863Z,959.04
2016-06-01T07:21:41.881Z,959.05
2016-06-01T07:22:41.884Z,959.09
2016-06-01T07:23:41.886Z,959.09
2016-06-01T07:24:41.905Z,959.11
2016-06-01T07:25:41.908Z,959.13
2016-06-01T07:26:41.926Z,959.09
2016-06-01T07:27:41.944Z,959.08
2016-06-01T07:28:41.947Z,959.12
2016-06-01T07:29:41.950Z,959.11
2016-06-01T07:30:41.967Z,959.14
2016-06-01T07:31:41.986Z,959.06
2016-06-01T07:32:41.989Z,959.1
2016-06-01T07:33:41.992Z,959.13
2016-06-01T07:34:42.010Z,959.14
2016-06-01T07:35:42.013Z,959.17
2016-06-01T07:36:42.031Z,959.12
2016-06-01T07:37:42.033Z,959.11
2016-06-01T07:38:42.395Z,959.08
2016-06-01T07:39:42.054Z,959.1
2016-06-01T07:40:42.073Z,959.11
2016-06-01T07:41:42.076Z,959.11
2016-06-01T07:42:42.094Z,959.14
2016-06-01T07:43:42.097Z,959.12
2016-06-01T07:44:42.115Z,959.1
2016-06-01T07:45:42.117Z,959.1
2016-06-01T07:46:42.120Z,959.12
2016-06-01T07:47:42.138Z,959.08
2016-06-01T07:48:42.141Z,959.08
2016-06-01T07:49:42.160Z,959.05
2016-06-01T07:50:42.162Z,959.08
2016-06-01T07:51:42.181Z,959.07
2016-06-01T07:52:42.183Z,959.05
2016-06-01T07:53:42.233Z,959.06
2016-06-01T07:54:42.204Z,959.05
2016-06-01T07:55:42.223Z,959.02
2016-06-01T07:56:42.225Z,959.06
2016-06-01T07:57:42.244Z,959.03
2016-06-01T07:58:42.247Z,958.99
2016-06-01T07:59:42.249Z,959.03
2016-06-01T08:00:42.268Z,959.06
2016-06-01T08:01:42.285Z,959.02
2016-06-01T08:02:42.288Z,958.99
2016-06-01T08:03:42.306Z,959
2016-06-01T08:04:42.309Z,959
2016-06-01T08:05:42.327Z,958.96
2016-06-01T08:06:42.330Z,958.96
2016-06-01T08:07:42.333Z,958.95
2016-06-01T08:08:42.352Z,958.99
2016-06-01T08:09:42.651Z,959.04
2016-06-01T08:10:42.372Z,959.01
2016-06-01T08:11:42.374Z,958.98
2016-06-01T08:12:42.393Z,958.99
2016-06-01T08:13:42.412Z,959.02
2016-06-01T08:14:42.415Z,959.01
2016-06-01T08:15:42.418Z,958.97
2016-06-01T08:16:42.420Z,958.96
2016-06-01T08:17:42.438Z,958.97
2016-06-01T08:18:42.456Z,958.95
2016-06-01T08:19:42.474Z,958.91
2016-06-01T08:20:42.477Z,958.92
2016-06-01T08:21:42.480Z,958.96
2016-06-01T08:22:42.499Z,958.95
2016-06-01T08:23:42.501Z,959.01
2016-06-01T08:24:42.519Z,958.95
2016-06-01T08:25:44.210Z,958.94
2016-06-01T08:26:42.540Z,958.94
2016-06-01T08:27:42.543Z,958.99
2016-06-01T08:28:42.561Z,958.96
2016-06-01T08:29:42.580Z,958.95
2016-06-01T08:30:42.567Z,958.96
2016-06-01T08:31:42.586Z,958.94
2016-06-01T08:32:42.603Z,958.95
2016-06-01T08:33:42.605Z,958.96
2016-06-01T08:34:42.609Z,958.94
2016-06-01T08:35:42.627Z,958.93
2016-06-01T08:36:42.645Z,958.93
2016-06-01T08:37:42.648Z,958.93
2016-06-01T08:38:42.650Z,958.95
2016-06-01T08:39:42.669Z,958.97
2016-06-01T08:40:42.672Z,958.94
2016-06-01T08:41:42.690Z,958.91
2016-06-01T08:42:42.708Z,958.9
2016-06-01T08:43:42.711Z,958.91
2016-06-01T08:44:42.714Z,958.89
2016-06-01T08:45:42.732Z,958.86
2016-06-01T08:46:42.735Z,958.93
2016-06-01T08:47:42.754Z,958.93
2016-06-01T08:48:42.757Z,958.89
2016-06-01T08:49:42.759Z,958.87
2016-06-01T08:50:42.776Z,958.89
2016-06-01T08:51:42.795Z,958.91
2016-06-01T08:52:42.798Z,958.88
2016-06-01T08:53:42.816Z,958.88
2016-06-01T08:54:42.819Z,958.95
2016-06-01T08:55:44.962Z,958.94
2016-06-01T08:56:42.840Z,958.98
2016-06-01T08:57:42.859Z,958.91
2016-06-01T08:58:42.861Z,958.91
2016-06-01T08:59:42.863Z,958.95
2016-06-01T09:00:42.882Z,959
2016-06-01T09:01:42.884Z,958.99
2016-06-01T09:02:42.903Z,958.98
2016-06-01T09:03:42.906Z,958.94
2016-06-01T09:04:42.924Z,959.03
2016-06-01T09:05:42.942Z,959.02
2016-06-01T09:06:42.945Z,959.04
2016-06-01T09:07:42.963Z,959.02
2016-06-01T09:08:42.966Z,958.99
2016-06-01T09:09:43.030Z,959.01
2016-06-01T09:10:42.986Z,958.95
2016-06-01T09:11:42.989Z,959
2016-06-01T09:12:43.008Z,958.99
2016-06-01T09:13:43.011Z,958.96
2016-06-01T09:14:43.029Z,958.96
2016-06-01T09:15:43.033Z,958.98
2016-06-01T09:16:43.075Z,958.96
2016-06-01T09:17:43.102Z,958.99
2016-06-01T09:18:43.144Z,958.97
2016-06-01T09:19:43.172Z,959.02
2016-06-01T09:20:43.213Z,958.97
2016-06-01T09:21:43.225Z,959.01
2016-06-01T09:22:43.250Z,958.99
2016-06-01T09:23:43.262Z,958.99
2016-06-01T09:24:43.289Z,958.99
2016-06-01T09:25:43.300Z,958.97
2016-06-01T09:26:43.337Z,958.99
2016-06-01T09:27:43.327Z,958.95
2016-06-01T09:28:43.348Z,958.96
2016-06-01T09:29:43.354Z,958.94
2016-06-01T09:30:43.376Z,958.93
2016-06-01T09:31:43.394Z,958.97
2016-06-01T09:32:43.399Z,958.94
2016-06-01T09:33:43.403Z,958.93
2016-06-01T09:34:43.422Z,958.97
2016-06-01T09:35:43.426Z,958.92
2016-06-01T09:36:43.445Z,958.91
2016-06-01T09:37:43.448Z,958.87
2016-06-01T09:38:43.466Z,958.91
2016-06-01T09:39:43.657Z,958.9
2016-06-01T09:40:43.488Z,958.86
2016-06-01T09:41:43.492Z,958.88
2016-06-01T09:42:43.510Z,958.86
2016-06-01T09:43:43.512Z,958.88
2016-06-01T09:44:43.531Z,958.95
2016-06-01T09:45:43.534Z,958.96
2016-06-01T09:46:43.553Z,958.95
2016-06-01T09:47:43.556Z,958.96
2016-06-01T09:48:43.574Z,958.99
2016-06-01T09:49:43.576Z,958.99
2016-06-01T09:50:43.595Z,958.98
2016-06-01T09:51:43.598Z,959.03
2016-06-01T09:52:43.601Z,958.98
2016-06-01T09:53:43.634Z,958.99
2016-06-01T09:54:43.636Z,958.97
2016-06-01T09:55:43.640Z,958.98
2016-06-01T09:56:43.658Z,958.95
2016-06-01T09:57:43.661Z,958.97
2016-06-01T09:58:43.678Z,958.95
2016-06-01T09:59:43.681Z,958.96
2016-06-01T10:00:43.700Z,958.95
2016-06-01T10:01:43.719Z,958.94
2016-06-01T10:02:43.722Z,958.94
2016-06-01T10:03:43.724Z,958.91
2016-06-01T10:04:43.726Z,958.92
2016-06-01T10:05:43.745Z,958.94
2016-06-01T10:06:43.763Z,958.92
2016-06-01T10:07:43.766Z,958.9
2016-06-01T10:08:43.784Z,958.89
2016-06-01T10:09:43.787Z,958.9
2016-06-01T10:10:43.805Z,958.85
2016-06-01T10:11:43.808Z,958.91
2016-06-01T10:12:43.811Z,958.86
2016-06-01T10:13:43.829Z,958.85
2016-06-01T10:14:43.846Z,958.84
2016-06-01T10:15:43.850Z,958.86
2016-06-01T10:16:43.852Z,958.89
2016-06-01T10:17:43.870Z,958.82
2016-06-01T10:18:43.889Z,958.88
2016-06-01T10:19:43.892Z,958.86
2016-06-01T10:20:43.895Z,958.85
2016-06-01T10:21:43.912Z,958.89
2016-06-01T10:22:43.947Z,958.87
2016-06-01T10:23:43.934Z,958.86
2016-06-01T10:24:44.187Z,958.86
2016-06-01T10:25:43.956Z,958.87
2016-06-01T10:26:43.958Z,958.85
2016-06-01T10:27:43.975Z,958.84
2016-06-01T10:28:43.978Z,958.85
2016-06-01T10:29:43.997Z,958.8
2016-06-01T10:30:44.000Z,958.82
2016-06-01T10:31:44.017Z,958.8
2016-06-01T10:32:44.020Z,958.79
2016-06-01T10:33:44.039Z,958.8
2016-06-01T10:34:44.058Z,958.75
2016-06-01T10:35:44.060Z,958.77
2016-06-01T10:36:44.078Z,958.82
2016-06-01T10:37:44.080Z,958.77
2016-06-01T10:38:44.100Z,958.77
2016-06-01T10:39:44.102Z,958.74
2016-06-01T10:40:44.104Z,958.72
2016-06-01T10:41:44.139Z,958.71
2016-06-01T10:42:44.126Z,958.72
2016-06-01T10:43:44.144Z,958.7
2016-06-01T10:44:44.146Z,958.7
2016-06-01T10:45:44.165Z,958.7
2016-06-01T10:46:44.167Z,958.7
2016-06-01T10:47:44.186Z,958.69
2016-06-01T10:48:44.188Z,958.7
2016-06-01T10:49:44.207Z,958.67
2016-06-01T10:50:44.226Z,958.68
2016-06-01T10:51:44.229Z,958.67
2016-06-01T10:52:44.246Z,958.65
2016-06-01T10:53:44.248Z,958.65
2016-06-01T10:54:44.345Z,958.64
2016-06-01T10:55:44.270Z,958.63
2016-06-01T10:56:44.289Z,958.62
2016-06-01T10:57:44.291Z,958.65
2016-06-01T10:58:44.294Z,958.57
2016-06-01T10:59:44.312Z,958.61
2016-06-01T11:00:44.362Z,958.54
2016-06-01T11:01:44.349Z,958.61
2016-06-01T11:02:44.335Z,958.61
2016-06-01T11:03:44.353Z,958.61
2016-06-01T11:04:44.356Z,958.6
2016-06-01T11:05:44.375Z,958.59
2016-06-01T11:06:44.377Z,958.57
2016-06-01T11:07:44.396Z,958.58
2016-06-01T11:08:44.399Z,958.62
2016-06-01T11:09:44.433Z,958.59
2016-06-01T11:10:44.419Z,958.63
2016-06-01T11:11:44.438Z,958.62
2016-06-01T11:12:44.440Z,958.6
2016-06-01T11:13:44.459Z,958.57
2016-06-01T11:14:44.462Z,958.62
2016-06-01T11:15:44.496Z,958.6
2016-06-01T11:16:44.482Z,958.58
2016-06-01T11:17:44.501Z,958.59
2016-06-01T11:18:44.504Z,958.57
2016-06-01T11:19:44.507Z,958.59
2016-06-01T11:20:44.524Z,958.52
2016-06-01T11:21:44.527Z,958.54
2016-06-01T11:22:44.545Z,958.52
2016-06-01T11:23:44.564Z,958.55
2016-06-01T11:24:44.676Z,958.49
2016-06-01T11:25:44.585Z,958.53
2016-06-01T11:26:44.587Z,958.54
2016-06-01T11:27:44.606Z,958.53
2016-06-01T11:28:44.609Z,958.5
2016-06-01T11:29:44.612Z,958.5
2016-06-01T11:30:44.630Z,958.48
2016-06-01T11:31:44.632Z,958.47
2016-06-01T11:32:44.650Z,958.46
2016-06-01T11:33:44.653Z,958.43
2016-06-01T11:34:44.672Z,958.43
2016-06-01T11:35:44.690Z,958.45
2016-06-01T11:36:44.693Z,958.43
2016-06-01T11:37:44.711Z,958.41
2016-06-01T11:38:44.714Z,958.42
2016-06-01T11:39:44.733Z,958.45
2016-06-01T11:40:44.735Z,958.41
2016-06-01T11:41:44.752Z,958.39
2016-06-01T11:42:44.755Z,958.38
2016-06-01T11:43:44.758Z,958.34
2016-06-01T11:44:44.777Z,958.37
2016-06-01T11:45:44.780Z,958.3
2016-06-01T11:46:44.798Z,958.3
2016-06-01T11:47:44.816Z,958.29
2016-06-01T11:48:44.850Z,958.3
2016-06-01T11:49:44.821Z,958.33
2016-06-01T11:50:44.840Z,958.34
2016-06-01T11:51:44.843Z,958.33
2016-06-01T11:52:44.860Z,958.33
2016-06-01T11:53:44.879Z,958.34
2016-06-01T11:54:45.725Z,958.36
2016-06-01T11:55:44.884Z,958.34
2016-06-01T11:56:44.903Z,958.35
2016-06-01T11:57:44.906Z,958.4
2016-06-01T11:58:44.923Z,958.4
2016-06-01T11:59:44.926Z,958.38
2016-06-01T12:00:44.929Z,958.41
2016-06-01T12:01:44.948Z,958.35
2016-06-01T12:02:44.966Z,958.37
2016-06-01T12:03:44.969Z,958.38
2016-06-01T12:04:44.987Z,958.35
2016-06-01T12:05:44.990Z,958.39
2016-06-01T12:06:45.007Z,958.35
2016-06-01T12:07:45.011Z,958.37
2016-06-01T12:08:45.029Z,958.37
2016-06-01T12:09:45.031Z,958.4
2016-06-01T12:10:45.049Z,958.35
2016-06-01T12:11:45.069Z,958.37
2016-06-01T12:12:45.071Z,958.35
2016-06-01T12:13:45.074Z,958.32
2016-06-01T12:14:45.077Z,958.34
2016-06-01T12:15:45.094Z,958.35
2016-06-01T12:16:45.097Z,958.34
2016-06-01T12:17:45.115Z,958.32
2016-06-01T12:18:45.118Z,958.33
2016-06-01T12:19:45.121Z,958.32
2016-06-01T12:20:45.139Z,958.36
2016-06-01T12:21:45.142Z,958.31
2016-06-01T12:22:45.160Z,958.28
2016-06-01T12:23:45.163Z,958.31
2016-06-01T12:24:45.181Z,958.3
2016-06-01T12:25:45.184Z,958.3
2016-06-01T12:26:45.187Z,958.31
2016-06-01T12:27:45.204Z,958.27
2016-06-01T12:28:45.224Z,958.27
2016-06-01T12:29:45.242Z,958.23
2016-06-01T12:30:45.244Z,958.21
2016-06-01T12:31:45.263Z,958.18
2016-06-01T12:32:45.250Z,958.16
2016-06-01T12:33:45.267Z,958.19
2016-06-01T12:34:45.270Z,958.23